Time;durP1;ratioP1;P1;durP2;ratioP2;P2;SDS_P1;SDS_P2;PMS_P1;PMS_P2;Temp;Humidity;BMP_temperature;BMP_pressure;BME280_temperature;BME280_humidity;BME280_pressure;Samples;Min_cycle;Max_cycle;Signal;HPM_P1;HPM_P2
2022/03/30 00:01:06;;;;;;;37.20;34.90;;;5.80;99.90;;;;;;4372363;32;20199;-57
2022/03/30 00:03:34;;;;;;;36.37;33.83;;;5.80;99.90;;;;;;4369834;32;20231;-58
2022/03/30 00:06:01;;;;;;;36.97;34.40;;;5.70;99.90;;;;;;4372466;32;20235;-58
2022/03/30 00:08:29;;;;;;;39.73;36.93;;;5.70;99.90;;;;;;4365769;32;20220;-57
2022/03/30 00:10:55;;;;;;;40.20;37.63;;;5.60;99.90;;;;;;4369666;32;20157;-57
2022/03/30 00:13:22;;;;;;;34.87;32.50;;;5.60;99.90;;;;;;4368690;32;20606;-57
2022/03/30 00:15:49;;;;;;;37.93;35.07;;;5.50;99.90;;;;;;4366491;32;20157;-58
2022/03/30 00:18:18;;;;;;;33.23;31.03;;;5.50;99.90;;;;;;4370331;32;20211;-57
2022/03/30 00:20:46;;;;;;;34.70;32.33;;;5.50;99.90;;;;;;4364256;32;20161;-57
2022/03/30 00:23:13;;;;;;;37.97;35.47;;;5.40;99.90;;;;;;4363138;32;20172;-58
2022/03/30 00:25:40;;;;;;;37.43;34.90;;;5.40;99.90;;;;;;4371874;32;20217;-57
2022/03/30 00:28:08;;;;;;;38.50;36.03;;;5.40;99.90;;;;;;4371791;32;20503;-57
2022/03/30 00:30:35;;;;;;;42.17;39.40;;;5.40;99.90;;;;;;4370381;32;20569;-56
2022/03/30 00:33:01;;;;;;;45.63;42.73;;;5.40;99.90;;;;;;4374190;32;20148;-57
2022/03/30 00:35:28;;;;;;;44.80;42.00;;;5.30;99.90;;;;;;4372979;32;20560;-58
2022/03/30 00:37:56;;;;;;;47.87;44.97;;;5.30;99.90;;;;;;4359403;32;20214;-58
2022/03/30 00:40:23;;;;;;;45.27;42.10;;;5.30;99.90;;;;;;4361058;32;20186;-59
2022/03/30 00:42:50;;;;;;;44.33;41.20;;;5.20;99.90;;;;;;4373859;32;20173;-57
2022/03/30 00:45:21;;;;;;;41.07;38.47;;;5.20;99.90;;;;;;4374103;32;20617;-57
2022/03/30 00:47:48;;;;;;;46.40;43.23;;;5.10;99.90;;;;;;4371560;32;20176;-57
2022/03/30 00:50:18;;;;;;;41.40;38.50;;;5.10;99.90;;;;;;4368405;32;20215;-59
2022/03/30 00:52:46;;;;;;;39.97;37.20;;;5.10;99.90;;;;;;4360202;32;20161;-57
2022/03/30 00:55:16;;;;;;;40.30;37.63;;;5.00;99.90;;;;;;4375606;32;20645;-58
2022/03/30 00:57:45;;;;;;;47.23;44.53;;;5.00;99.90;;;;;;4367914;32;20202;-55
2022/03/30 01:00:15;;;;;;;37.03;34.80;;;5.00;99.90;;;;;;4374351;32;20160;-59
2022/03/30 01:02:44;;;;;;;40.40;37.37;;;5.10;99.90;;;;;;4371783;32;20164;-59
2022/03/30 01:05:15;;;;;;;40.13;37.77;;;5.10;99.90;;;;;;4362132;32;20212;-57
2022/03/30 01:07:42;;;;;;;46.23;43.10;;;5.20;99.90;;;;;;4366959;32;20153;-57
2022/03/30 01:10:11;;;;;;;45.10;41.97;;;5.30;99.90;;;;;;4364151;32;20216;-56
2022/03/30 01:12:40;;;;;;;43.60;40.93;;;5.40;99.90;;;;;;4374350;32;20618;-58
2022/03/30 01:15:08;;;;;;;47.93;45.17;;;5.40;99.90;;;;;;4375223;32;20558;-59
2022/03/30 01:17:37;;;;;;;42.77;39.77;;;5.40;99.90;;;;;;4375096;32;20243;-58
2022/03/30 01:20:04;;;;;;;47.13;43.83;;;5.40;99.90;;;;;;4376603;32;20202;-59
2022/03/30 01:22:33;;;;;;;52.67;49.57;;;5.30;99.90;;;;;;4375797;32;20168;-58
2022/03/30 01:25:00;;;;;;;47.07;44.47;;;5.20;99.90;;;;;;4375476;32;20160;-57
2022/03/30 01:27:27;;;;;;;44.13;40.97;;;5.10;99.90;;;;;;4360058;32;20157;-57
2022/03/30 01:32:39;;;;;;;40.83;38.03;;;5.00;99.90;;;;;;4371348;32;20242;-54
2022/03/30 01:35:07;;;;;;;38.80;36.23;;;4.90;99.90;;;;;;4377482;32;20223;-59
2022/03/30 01:37:35;;;;;;;43.37;40.83;;;4.90;99.90;;;;;;4375682;32;20164;-59
2022/03/30 01:40:07;;;;;;;43.63;40.83;;;4.80;99.90;;;;;;4376343;32;20152;-59
2022/03/30 01:42:34;;;;;;;57.80;54.40;;;4.80;99.90;;;;;;4375312;32;20220;-58
2022/03/30 01:45:01;;;;;;;96.47;91.47;;;4.80;99.90;;;;;;4366135;32;20173;-59
2022/03/30 01:47:28;;;;;;;93.50;88.77;;;4.70;99.90;;;;;;4364631;32;20161;-58
2022/03/30 01:49:55;;;;;;;93.23;88.57;;;4.60;99.90;;;;;;4363507;32;20176;-59
2022/03/30 01:52:22;;;;;;;88.07;83.73;;;4.60;99.90;;;;;;4366193;32;20466;-60
2022/03/30 01:54:50;;;;;;;91.93;87.43;;;4.60;99.90;;;;;;4376095;32;20548;-56
2022/03/30 01:57:18;;;;;;;94.27;89.43;;;4.60;99.90;;;;;;4372449;32;20223;-55
2022/03/30 01:59:47;;;;;;;94.03;89.43;;;4.60;99.90;;;;;;4368748;32;20529;-56
2022/03/30 02:02:13;;;;;;;98.93;94.13;;;4.50;99.90;;;;;;4363556;32;20231;-59
2022/03/30 02:04:43;;;;;;;102.90;98.00;;;4.50;99.90;;;;;;4371124;32;20251;-58
2022/03/30 02:07:10;;;;;;;97.23;92.53;;;4.50;99.90;;;;;;4370417;32;20195;-57
2022/03/30 02:09:38;;;;;;;104.43;99.30;;;4.50;99.90;;;;;;4368321;32;20616;-58
2022/03/30 02:12:07;;;;;;;98.07;92.70;;;4.40;99.90;;;;;;4374821;32;20216;-60
2022/03/30 02:14:34;;;;;;;108.83;103.53;;;4.40;99.90;;;;;;4369094;32;20275;-59
2022/03/30 02:17:02;;;;;;;99.80;94.83;;;4.40;99.90;;;;;;4373357;32;20211;-55
2022/03/30 02:19:28;;;;;;;108.27;103.23;;;4.30;99.90;;;;;;4372776;32;20158;-56
2022/03/30 02:21:55;;;;;;;109.37;103.87;;;4.30;99.90;;;;;;4364787;32;20223;-59
2022/03/30 02:24:22;;;;;;;107.23;101.97;;;4.20;99.90;;;;;;4371680;32;20498;-59
2022/03/30 02:26:52;;;;;;;101.37;96.37;;;4.20;99.90;;;;;;4373547;32;20243;-58
2022/03/30 02:29:20;;;;;;;104.97;99.77;;;4.20;99.90;;;;;;4368722;32;20156;-58
2022/03/30 02:31:47;;;;;;;104.90;99.97;;;4.20;99.90;;;;;;4373979;32;20180;-59
2022/03/30 02:34:14;;;;;;;110.23;105.10;;;4.20;99.90;;;;;;4367893;32;20161;-59
2022/03/30 02:36:43;;;;;;;118.50;112.67;;;4.10;99.90;;;;;;4372356;32;20181;-57
2022/03/30 02:39:11;;;;;;;107.73;102.80;;;4.10;99.90;;;;;;4371429;32;20183;-58
2022/03/30 02:41:38;;;;;;;107.10;101.87;;;4.10;99.90;;;;;;4374849;32;20188;-57
2022/03/30 02:44:06;;;;;;;107.00;101.73;;;4.00;99.90;;;;;;4372339;32;20153;-59
2022/03/30 02:46:34;;;;;;;116.30;110.47;;;4.00;99.90;;;;;;4374905;32;20153;-58
2022/03/30 02:49:04;;;;;;;113.10;107.80;;;4.00;99.90;;;;;;4376377;32;20184;-57
2022/03/30 02:51:30;;;;;;;123.70;117.47;;;4.00;99.90;;;;;;4369488;32;20161;-58
2022/03/30 02:53:57;;;;;;;125.93;119.80;;;3.90;99.90;;;;;;4365569;32;20202;-58
2022/03/30 02:56:24;;;;;;;136.97;130.30;;;3.90;99.90;;;;;;4293905;32;2443827;-58
2022/03/30 02:58:52;;;;;;;124.30;118.20;;;3.90;99.90;;;;;;4374889;32;20298;-59
2022/03/30 03:01:18;;;;;;;128.50;122.30;;;3.90;99.90;;;;;;4372782;32;20204;-58
2022/03/30 03:03:47;;;;;;;137.60;130.93;;;3.90;99.90;;;;;;4373250;32;20286;-62
2022/03/30 03:06:13;;;;;;;124.93;119.20;;;3.90;99.90;;;;;;4376755;32;20214;-56
2022/03/30 03:08:40;;;;;;;130.17;123.87;;;3.90;99.90;;;;;;4374970;32;20174;-58
2022/03/30 03:11:10;;;;;;;134.30;128.03;;;3.90;99.90;;;;;;4375078;32;20154;-54
2022/03/30 03:13:37;;;;;;;134.17;127.87;;;3.80;99.90;;;;;;4366767;32;20516;-58
2022/03/30 03:16:05;;;;;;;112.57;107.27;;;3.80;99.90;;;;;;4384410;32;20153;-57
2022/03/30 03:18:32;;;;;;;113.87;108.17;;;3.80;99.90;;;;;;4376889;32;20545;-56
2022/03/30 03:21:00;;;;;;;112.70;107.30;;;3.70;99.90;;;;;;4374636;32;20254;-57
2022/03/30 03:23:26;;;;;;;112.40;106.53;;;3.70;99.90;;;;;;4373216;32;20494;-57
2022/03/30 03:25:54;;;;;;;107.03;101.60;;;3.70;99.90;;;;;;4374576;32;20568;-59
2022/03/30 03:28:23;;;;;;;98.77;93.60;;;3.70;99.90;;;;;;4375232;32;20618;-58
2022/03/30 03:30:53;;;;;;;95.67;90.63;;;3.70;99.90;;;;;;4373797;32;20427;-59
2022/03/30 03:33:20;;;;;;;96.90;92.17;;;3.70;99.90;;;;;;4374944;32;20164;-57
2022/03/30 03:35:49;;;;;;;96.07;91.40;;;3.70;99.90;;;;;;4374344;32;20215;-59
2022/03/30 03:38:18;;;;;;;96.37;91.40;;;3.70;99.90;;;;;;4371639;32;20144;-53
2022/03/30 03:40:45;;;;;;;82.83;78.77;;;3.60;99.90;;;;;;4374643;32;20167;-56
2022/03/30 03:43:12;;;;;;;82.47;78.37;;;3.60;99.90;;;;;;4375181;32;20518;-57
2022/03/30 03:45:38;;;;;;;90.27;85.83;;;3.60;99.90;;;;;;4372921;32;20145;-57
2022/03/30 03:48:06;;;;;;;97.07;92.27;;;3.60;99.90;;;;;;4370041;32;20179;-55
2022/03/30 03:50:33;;;;;;;98.70;93.67;;;3.50;99.90;;;;;;4374269;32;20163;-60
2022/03/30 03:53:01;;;;;;;85.90;81.70;;;3.60;99.90;;;;;;4369231;32;20480;-56
2022/03/30 03:55:33;;;;;;;82.20;78.20;;;3.50;99.90;;;;;;4373426;32;20515;-58
2022/03/30 03:58:02;;;;;;;84.57;80.50;;;3.50;99.90;;;;;;4361407;32;20571;-58
2022/03/30 04:00:29;;;;;;;82.30;77.87;;;3.50;99.90;;;;;;4372934;32;20172;-57
2022/03/30 04:02:56;;;;;;;80.73;76.70;;;3.50;99.90;;;;;;4374473;32;20178;-57
2022/03/30 04:05:22;;;;;;;90.07;85.50;;;3.50;99.90;;;;;;4374427;32;20251;-58
2022/03/30 04:07:49;;;;;;;89.27;84.97;;;3.40;99.90;;;;;;4372076;32;20150;-57
2022/03/30 04:10:16;;;;;;;87.17;82.83;;;3.40;99.90;;;;;;4372279;32;20226;-59
2022/03/30 04:12:44;;;;;;;81.40;76.97;;;3.40;99.90;;;;;;4374589;32;20240;-55
2022/03/30 04:15:11;;;;;;;70.80;66.97;;;3.40;99.90;;;;;;4373117;32;20163;-58
2022/03/30 04:17:44;;;;;;;69.70;66.17;;;3.40;99.90;;;;;;4374954;32;20226;-58
2022/03/30 04:20:12;;;;;;;61.40;57.67;;;3.40;99.90;;;;;;4373448;32;20585;-56
2022/03/30 04:22:40;;;;;;;62.40;59.10;;;3.40;99.90;;;;;;4376288;32;20205;-53
2022/03/30 04:25:08;;;;;;;56.97;53.30;;;3.40;99.90;;;;;;4377663;32;20253;-58
2022/03/30 04:27:35;;;;;;;60.87;57.53;;;3.30;99.90;;;;;;4373668;32;20163;-60
2022/03/30 04:30:04;;;;;;;55.90;52.90;;;3.30;99.90;;;;;;4377502;32;20155;-56
2022/03/30 04:32:31;;;;;;;51.63;48.73;;;3.30;99.90;;;;;;4377221;32;20151;-55
2022/03/30 04:34:58;;;;;;;53.77;50.27;;;3.30;99.90;;;;;;4372690;32;20172;-58
2022/03/30 04:37:25;;;;;;;52.33;49.33;;;3.20;99.90;;;;;;4376225;32;20248;-57
2022/03/30 04:39:54;;;;;;;54.07;51.03;;;3.20;99.90;;;;;;4373610;32;20221;-58
2022/03/30 04:42:21;;;;;;;57.10;54.00;;;3.20;99.90;;;;;;4373618;32;20158;-56
2022/03/30 04:44:48;;;;;;;53.60;50.40;;;3.20;99.90;;;;;;4378120;32;20156;-53
2022/03/30 04:47:17;;;;;;;54.87;51.57;;;3.10;99.90;;;;;;4370987;32;20228;-53
2022/03/30 04:49:44;;;;;;;56.63;53.57;;;3.20;99.90;;;;;;4373775;32;20228;-56
2022/03/30 04:52:11;;;;;;;42.00;39.57;;;3.20;99.90;;;;;;4376951;32;20574;-56
2022/03/30 04:54:38;;;;;;;39.60;37.20;;;3.20;99.90;;;;;;4376928;32;20170;-55
2022/03/30 04:57:05;;;;;;;39.97;37.40;;;3.20;99.90;;;;;;4375829;32;20573;-56
2022/03/30 04:59:32;;;;;;;36.60;34.00;;;3.10;99.90;;;;;;4379019;32;20155;-57
2022/03/30 05:01:59;;;;;;;38.20;35.77;;;3.10;99.90;;;;;;4378816;32;20574;-58
2022/03/30 05:04:29;;;;;;;36.40;33.80;;;3.10;99.90;;;;;;4378484;32;20181;-56
2022/03/30 05:06:56;;;;;;;37.60;34.80;;;3.10;99.90;;;;;;4375083;32;20155;-56
2022/03/30 05:09:23;;;;;;;37.37;34.77;;;3.10;99.90;;;;;;4375196;32;20224;-56
2022/03/30 05:11:50;;;;;;;38.47;36.00;;;3.10;99.90;;;;;;4374505;32;20145;-57
2022/03/30 05:14:17;;;;;;;37.60;35.03;;;3.10;99.90;;;;;;4375856;32;20191;-54
2022/03/30 05:16:44;;;;;;;40.77;38.17;;;3.10;99.90;;;;;;4377537;32;20241;-56
2022/03/30 05:19:11;;;;;;;50.43;46.70;;;3.10;99.90;;;;;;4376569;32;20151;-55
2022/03/30 05:21:39;;;;;;;45.87;43.07;;;3.00;99.90;;;;;;4376283;32;20259;-55
2022/03/30 05:24:07;;;;;;;44.33;41.53;;;3.10;99.90;;;;;;4374911;32;20211;-58
2022/03/30 05:26:34;;;;;;;46.47;43.80;;;3.10;99.90;;;;;;4373524;32;20162;-57
2022/03/30 05:29:00;;;;;;;45.80;42.73;;;3.20;99.90;;;;;;4374411;32;20204;-58
2022/03/30 05:31:27;;;;;;;48.03;45.30;;;3.20;99.90;;;;;;4373589;32;20247;-56
2022/03/30 05:33:54;;;;;;;48.80;45.70;;;3.20;99.90;;;;;;4376348;32;20230;-54
2022/03/30 05:36:21;;;;;;;45.57;42.67;;;3.20;99.90;;;;;;4375628;32;20175;-56
2022/03/30 05:38:51;;;;;;;46.87;44.10;;;3.30;99.90;;;;;;4375355;32;20285;-55
2022/03/30 05:41:18;;;;;;;49.67;46.70;;;3.30;99.90;;;;;;4375350;32;20531;-57
2022/03/30 05:43:45;;;;;;;53.57;50.40;;;3.30;99.90;;;;;;4372857;32;20182;-55
2022/03/30 05:46:12;;;;;;;48.07;45.13;;;3.40;99.90;;;;;;4373924;32;20223;-54
2022/03/30 05:48:39;;;;;;;45.17;42.37;;;3.40;99.90;;;;;;4375579;32;20149;-55
2022/03/30 05:51:07;;;;;;;53.80;50.03;;;3.50;99.90;;;;;;4372748;32;20168;-57
2022/03/30 05:53:34;;;;;;;49.87;46.50;;;3.60;99.90;;;;;;4372604;32;20218;-56
2022/03/30 05:56:02;;;;;;;48.33;45.33;;;3.60;99.90;;;;;;4366067;32;20232;-57
2022/03/30 05:58:29;;;;;;;50.43;47.10;;;3.70;99.90;;;;;;4372798;32;20144;-55
2022/03/30 06:00:56;;;;;;;50.40;47.13;;;3.80;99.90;;;;;;4367336;32;20154;-58
2022/03/30 06:03:22;;;;;;;48.27;45.50;;;3.90;99.90;;;;;;4372874;32;20240;-58
2022/03/30 06:05:51;;;;;;;48.33;45.57;;;4.00;99.90;;;;;;4371987;32;20218;-56
2022/03/30 06:08:18;;;;;;;50.17;46.63;;;4.10;99.90;;;;;;4366335;32;20187;-57
2022/03/30 06:10:46;;;;;;;48.27;45.40;;;4.20;99.90;;;;;;4373944;32;20225;-52
2022/03/30 06:13:14;;;;;;;54.00;50.83;;;4.30;99.90;;;;;;4372505;32;20669;-55
2022/03/30 06:15:41;;;;;;;50.23;47.37;;;4.40;99.90;;;;;;4368129;32;20227;-57
2022/03/30 06:18:11;;;;;;;54.03;50.90;;;4.50;99.90;;;;;;4367325;32;20607;-57
2022/03/30 06:20:40;;;;;;;54.83;51.70;;;4.70;99.90;;;;;;4371939;32;20236;-54
2022/03/30 06:23:07;;;;;;;56.37;53.13;;;4.90;99.90;;;;;;4374967;32;20174;-56
2022/03/30 06:25:36;;;;;;;56.07;52.47;;;5.10;99.90;;;;;;4375593;32;20611;-57
2022/03/30 06:28:04;;;;;;;53.83;50.90;;;5.30;99.90;;;;;;4370647;32;20176;-54
2022/03/30 06:30:32;;;;;;;58.10;54.33;;;5.50;99.90;;;;;;4366462;32;20170;-56
2022/03/30 06:33:00;;;;;;;58.80;55.43;;;5.70;99.90;;;;;;4370517;32;20188;-55
2022/03/30 06:35:33;;;;;;;56.00;52.87;;;5.80;99.90;;;;;;4376165;32;20156;-58
2022/03/30 06:38:01;;;;;;;57.53;54.27;;;6.00;99.90;;;;;;4370875;32;20212;-56
2022/03/30 06:40:28;;;;;;;59.93;56.60;;;6.30;99.90;;;;;;4373258;32;20156;-56
2022/03/30 06:42:56;;;;;;;63.37;59.67;;;6.40;99.90;;;;;;4373685;32;20163;-56
2022/03/30 06:45:23;;;;;;;59.27;55.83;;;6.50;99.90;;;;;;4373865;32;20224;-58
2022/03/30 06:47:51;;;;;;;61.50;58.00;;;6.50;99.90;;;;;;4381972;32;20206;-54
2022/03/30 06:50:19;;;;;;;62.67;59.30;;;6.90;99.90;;;;;;4373732;32;20188;-55
2022/03/30 06:52:46;;;;;;;66.30;62.77;;;7.30;99.90;;;;;;4375447;32;20468;-57
2022/03/30 06:55:14;;;;;;;68.30;64.47;;;7.80;99.90;;;;;;4374956;32;20171;-54
2022/03/30 06:57:42;;;;;;;67.23;63.63;;;8.10;99.90;;;;;;4374466;32;20161;-57
2022/03/30 07:00:12;;;;;;;63.03;59.47;;;8.20;99.90;;;;;;4369275;32;20534;-56
2022/03/30 07:02:39;;;;;;;62.97;59.40;;;8.20;99.90;;;;;;4361356;32;20171;-54
2022/03/30 07:05:09;;;;;;;59.43;56.33;;;8.30;99.90;;;;;;4370649;32;20482;-58
2022/03/30 07:10:20;;;;;;;59.13;55.83;;;8.10;99.90;;;;;;4370634;32;20228;-56
2022/03/30 07:12:48;;;;;;;59.83;56.30;;;8.10;99.90;;;;;;4369590;32;20179;-57
2022/03/30 07:15:16;;;;;;;57.43;54.13;;;8.10;99.90;;;;;;4365430;32;20213;-55
2022/03/30 07:17:48;;;;;;;63.47;59.87;;;8.20;99.90;;;;;;4374686;32;20212;-52
2022/03/30 07:20:17;;;;;;;56.97;53.60;;;8.40;99.90;;;;;;4366288;32;20279;-55
2022/03/30 07:22:45;;;;;;;56.07;52.60;;;8.70;99.90;;;;;;4375357;32;20164;-60
2022/03/30 07:25:13;;;;;;;57.33;53.90;;;9.00;99.90;;;;;;4374315;32;20148;-57
2022/03/30 07:27:43;;;;;;;55.33;52.37;;;9.30;99.90;;;;;;4373460;32;20212;-56
2022/03/30 07:30:11;;;;;;;60.57;56.93;;;9.80;99.90;;;;;;4367670;32;20192;-58
2022/03/30 07:32:42;;;;;;;56.77;53.67;;;9.90;99.90;;;;;;4366356;32;20239;-58
2022/03/30 07:35:11;;;;;;;63.00;59.17;;;9.90;99.90;;;;;;4369429;32;20244;-55
2022/03/30 07:37:40;;;;;;;56.23;53.23;;;9.80;99.90;;;;;;4374302;32;20509;-56
2022/03/30 07:40:09;;;;;;;54.73;51.30;;;9.90;99.90;;;;;;4362173;32;20238;-57
2022/03/30 07:42:37;;;;;;;56.27;53.27;;;10.00;99.90;;;;;;4373361;32;20586;-55
2022/03/30 07:45:05;;;;;;;63.90;60.27;;;10.10;99.90;;;;;;4367953;32;20495;-54
2022/03/30 07:47:32;;;;;;;57.77;54.77;;;10.10;99.90;;;;;;4360685;32;20174;-56
2022/03/30 07:50:01;;;;;;;58.07;54.70;;;9.90;99.90;;;;;;4373370;32;20154;-57
2022/03/30 07:52:28;;;;;;;53.97;51.17;;;10.40;99.90;;;;;;4369209;32;20174;-59
2022/03/30 07:55:01;;;;;;;61.13;57.83;;;10.60;99.90;;;;;;4377148;32;20148;-58
2022/03/30 07:57:28;;;;;;;66.63;63.20;;;11.00;99.90;;;;;;4371469;32;20161;-55
2022/03/30 07:59:55;;;;;;;61.53;58.23;;;11.20;99.90;;;;;;4382462;32;20477;-57
2022/03/30 08:02:23;;;;;;;62.80;59.57;;;10.90;99.90;;;;;;4373903;32;20160;-56
2022/03/30 08:04:50;;;;;;;67.53;63.87;;;10.90;99.90;;;;;;4373411;32;20247;-52
2022/03/30 08:07:18;;;;;;;67.53;64.07;;;11.30;99.90;;;;;;4379563;32;20185;-54
2022/03/30 08:09:45;;;;;;;64.17;60.47;;;11.70;99.90;;;;;;4379549;32;20169;-59
2022/03/30 08:12:16;;;;;;;60.47;57.17;;;12.40;99.90;;;;;;4377911;32;20474;-57
2022/03/30 08:14:44;;;;;;;59.47;56.30;;;12.90;99.90;;;;;;4377244;32;20223;-54
2022/03/30 08:17:11;;;;;;;53.93;50.93;;;13.00;99.30;;;;;;4375436;32;20220;-54
2022/03/30 08:19:39;;;;;;;64.10;60.70;;;13.20;99.20;;;;;;4365549;32;20174;-58
2022/03/30 08:24:50;;;;;;;63.97;60.87;;;12.80;98.60;;;;;;4367444;32;20204;-56
2022/03/30 08:27:23;;;;;;;60.60;57.20;;;13.00;99.00;;;;;;4376359;32;20167;-59
2022/03/30 08:29:51;;;;;;;63.33;60.10;;;13.10;97.80;;;;;;4367250;32;20253;-56
2022/03/30 08:32:21;;;;;;;57.03;54.10;;;12.70;98.30;;;;;;4370889;32;20552;-56
2022/03/30 08:34:51;;;;;;;56.30;53.07;;;12.40;99.50;;;;;;4377527;32;20224;-58
2022/03/30 08:37:18;;;;;;;54.50;51.50;;;12.80;99.30;;;;;;4380364;32;20496;-58
2022/03/30 08:39:45;;;;;;;57.27;54.17;;;14.70;98.20;;;;;;4378081;32;20184;-57
2022/03/30 08:42:14;;;;;;;55.13;52.13;;;17.80;92.60;;;;;;4369016;32;20172;-57
2022/03/30 08:44:42;;;;;;;62.33;58.97;;;19.30;85.10;;;;;;4379150;32;20496;-54
2022/03/30 08:47:11;;;;;;;64.43;61.30;;;20.60;80.40;;;;;;4375875;32;20148;-56
2022/03/30 08:49:38;;;;;;;84.57;80.43;;;20.60;74.80;;;;;;4380174;32;20212;-59
2022/03/30 08:52:07;;;;;;;97.07;92.43;;;21.00;73.70;;;;;;4380834;32;20219;-55
2022/03/30 08:54:34;;;;;;;87.73;83.47;;;20.90;72.30;;;;;;4375898;32;20171;-56
2022/03/30 08:57:02;;;;;;;74.20;70.67;;;18.60;74.20;;;;;;4378105;32;20156;-55
2022/03/30 08:59:29;;;;;;;63.00;59.90;;;17.10;79.40;;;;;;4378582;32;20463;-52
2022/03/30 09:02:00;;;;;;;53.47;50.77;;;16.20;83.40;;;;;;4374034;32;20196;-56
2022/03/30 09:04:27;;;;;;;65.70;62.23;;;15.40;85.20;;;;;;4369070;32;20156;-58
2022/03/30 09:06:56;;;;;;;68.00;64.57;;;14.60;88.90;;;;;;4372775;32;20280;-56
2022/03/30 09:09:33;;;;;;;65.57;62.40;;;14.00;91.00;;;;;;4376693;32;20236;-55
2022/03/30 09:12:06;;;;;;;63.00;59.80;;;13.70;92.10;;;;;;4366279;32;20494;-55
2022/03/30 09:14:37;;;;;;;64.53;61.00;;;13.80;92.50;;;;;;4372346;32;20531;-57
2022/03/30 09:17:07;;;;;;;65.13;61.97;;;14.00;92.30;;;;;;4374040;32;20347;-55
2022/03/30 09:19:36;;;;;;;68.50;65.10;;;13.90;92.20;;;;;;4364441;32;20220;-62
2022/03/30 09:22:05;;;;;;;63.73;60.77;;;13.80;93.00;;;;;;4372179;32;20633;-59
2022/03/30 09:24:44;;;;;;;60.67;57.33;;;14.00;93.50;;;;;;4374834;32;20156;-58
2022/03/30 09:27:11;;;;;;;64.93;61.57;;;14.30;92.20;;;;;;4370633;32;20191;-58
2022/03/30 09:29:38;;;;;;;66.20;62.97;;;14.20;93.10;;;;;;4373122;32;20593;-56
2022/03/30 09:32:08;;;;;;;68.03;64.80;;;13.90;92.80;;;;;;4363820;32;20230;-57
2022/03/30 09:34:48;;;;;;;57.33;54.63;;;13.60;93.40;;;;;;4372356;32;20152;-58
2022/03/30 09:37:15;;;;;;;56.87;54.00;;;13.40;92.50;;;;;;4373014;32;20520;-57
2022/03/30 09:39:44;;;;;;;63.10;60.23;;;13.20;92.90;;;;;;4371014;32;20153;-56
2022/03/30 09:42:13;;;;;;;55.43;52.83;;;13.30;93.50;;;;;;4373763;32;20656;-54
2022/03/30 09:44:47;;;;;;;56.03;53.37;;;13.60;92.80;;;;;;4369985;32;21035;-55
2022/03/30 09:47:16;;;;;;;56.77;54.00;;;13.70;92.80;;;;;;4371178;32;20227;-54
2022/03/30 09:49:45;;;;;;;54.53;51.90;;;13.90;91.90;;;;;;4372792;32;20248;-56
2022/03/30 09:52:18;;;;;;;58.90;56.33;;;13.90;92.00;;;;;;4365974;32;20145;-55
2022/03/30 09:54:49;;;;;;;61.20;58.30;;;13.90;91.90;;;;;;4372307;32;20156;-55
2022/03/30 09:57:20;;;;;;;49.37;46.93;;;14.10;91.50;;;;;;4371604;32;20169;-57
2022/03/30 10:00:04;;;;;;;53.40;50.90;;;14.10;90.90;;;;;;4374087;32;20269;-59
2022/03/30 10:02:34;;;;;;;63.00;60.10;;;14.10;91.00;;;;;;4377675;32;20153;-58
2022/03/30 10:05:01;;;;;;;69.80;66.60;;;14.50;90.70;;;;;;4374788;32;20144;-58
2022/03/30 10:07:29;;;;;;;56.20;53.33;;;14.70;90.40;;;;;;4375360;32;20152;-56
2022/03/30 10:09:58;;;;;;;46.57;44.27;;;14.40;89.20;;;;;;4376939;32;20148;-58
2022/03/30 10:12:26;;;;;;;40.00;37.90;;;14.00;89.60;;;;;;4376619;32;20578;-57
2022/03/30 10:14:54;;;;;;;41.93;39.83;;;13.60;89.00;;;;;;4376385;32;20189;-57
2022/03/30 10:17:22;;;;;;;38.63;36.63;;;13.70;90.60;;;;;;4377374;32;20201;-57
2022/03/30 10:19:52;;;;;;;36.77;35.03;;;13.90;90.00;;;;;;4377835;32;20140;-58
2022/03/30 10:22:55;;;;;;;46.17;43.97;;;13.80;90.40;;;;;;4376132;32;20156;-56
2022/03/30 10:25:42;;;;;;;33.63;31.93;;;14.40;89.60;;;;;;4313302;33;20180;-57
2022/03/30 10:28:22;;;;;;;33.90;31.77;;;14.80;89.40;;;;;;4319356;33;20161;-58
2022/03/30 10:30:53;;;;;;;36.23;34.47;;;15.10;86.80;;;;;;4329464;33;20166;-57
2022/03/30 10:33:32;;;;;;;44.27;42.03;;;15.20;87.10;;;;;;4315503;33;20197;-57
2022/03/30 10:36:21;;;;;;;34.63;32.93;;;15.20;87.20;;;;;;4310644;33;20240;-57
2022/03/30 10:39:09;;;;;;;36.60;34.93;;;14.70;86.10;;;;;;4314889;33;20346;-57
2022/03/30 10:41:48;;;;;;;45.47;43.37;;;13.70;87.70;;;;;;4312276;33;20154;-57
2022/03/30 10:44:35;;;;;;;47.90;45.37;;;13.50;90.50;;;;;;4312027;33;20233;-56
2022/03/30 10:47:07;;;;;;;45.83;43.67;;;13.90;90.00;;;;;;4311729;33;20284;-57
2022/03/30 10:49:49;;;;;;;46.67;44.37;;;14.00;90.20;;;;;;4312113;33;20250;-57
2022/03/30 10:52:41;;;;;;;48.83;46.47;;;14.10;90.00;;;;;;4312147;33;20153;-57
2022/03/30 10:55:31;;;;;;;43.60;41.43;;;14.30;89.00;;;;;;4307420;33;20701;-56
2022/03/30 10:58:01;;;;;;;36.37;34.67;;;14.30;88.00;;;;;;4310491;33;20162;-57
2022/03/30 11:00:31;;;;;;;42.20;40.30;;;14.30;88.30;;;;;;4313477;33;20170;-57
2022/03/30 11:03:13;;;;;;;42.00;40.03;;;14.30;88.40;;;;;;4356455;32;20219;-57
2022/03/30 11:05:43;;;;;;;33.93;32.27;;;14.50;89.40;;;;;;4374257;32;20149;-57
2022/03/30 11:08:56;;;;;;;42.80;40.70;;;14.30;87.80;;;;;;4373692;32;20679;-58
2022/03/30 11:11:24;;;;;;;34.47;32.97;;;14.60;89.00;;;;;;4372942;32;20492;-58
2022/03/30 11:14:24;;;;;;;37.13;35.33;;;14.80;87.00;;;;;;4373632;32;20287;-57
2022/03/30 11:16:54;;;;;;;37.83;35.97;;;14.80;86.60;;;;;;4374530;32;20216;-58
2022/03/30 11:19:26;;;;;;;33.30;31.80;;;14.80;85.70;;;;;;4374563;32;20597;-57
2022/03/30 11:22:03;;;;;;;32.80;31.30;;;14.90;83.90;;;;;;4374275;32;20237;-58
2022/03/30 11:24:32;;;;;;;27.80;26.60;;;15.10;83.80;;;;;;4369772;32;20291;-57
2022/03/30 11:27:20;;;;;;;30.17;28.73;;;15.20;81.10;;;;;;4370267;32;20152;-58
2022/03/30 11:30:17;;;;;;;32.63;31.13;;;15.10;82.50;;;;;;4373366;32;20148;-58
2022/03/30 11:32:59;;;;;;;28.63;27.33;;;15.10;83.40;;;;;;4371757;32;20523;-57
2022/03/30 11:35:30;;;;;;;25.57;24.37;;;15.30;83.20;;;;;;4374938;32;20490;-57
2022/03/30 11:38:07;;;;;;;24.93;23.83;;;15.30;81.60;;;;;;4370606;32;20157;-58
2022/03/30 11:40:41;;;;;;;46.08;44.03;;;15.30;81.20;;;;;;4372962;32;20051;-57
2022/03/30 11:43:10;;;;;;;30.70;29.33;;;15.50;82.30;;;;;;4375242;32;20152;-58
2022/03/30 11:45:37;;;;;;;21.87;20.97;;;15.80;81.00;;;;;;4373031;32;20211;-57
2022/03/30 11:48:06;;;;;;;20.73;19.83;;;15.60;77.50;;;;;;4372804;32;20646;-57
2022/03/30 11:50:36;;;;;;;22.20;21.20;;;15.30;78.20;;;;;;4372985;32;20576;-56
2022/03/30 11:53:05;;;;;;;20.93;20.00;;;15.10;79.20;;;;;;4374660;32;20480;-58
2022/03/30 11:55:35;;;;;;;22.23;21.27;;;15.00;79.30;;;;;;4374156;32;20511;-58
2022/03/30 11:58:04;;;;;;;22.40;21.40;;;14.90;79.60;;;;;;4370040;32;20152;-58
2022/03/30 12:00:33;;;;;;;22.57;21.57;;;15.00;79.70;;;;;;4372331;32;20211;-55
2022/03/30 12:03:11;;;;;;;26.73;25.53;;;14.80;79.60;;;;;;4372550;32;20317;-56
2022/03/30 12:05:38;;;;;;;26.37;25.07;;;14.40;83.00;;;;;;4371785;32;20186;-58
2022/03/30 12:08:05;;;;;;;26.67;25.63;;;14.30;82.30;;;;;;4373493;32;20171;-56
2022/03/30 12:10:32;;;;;;;31.50;30.23;;;14.00;82.80;;;;;;4373374;32;20206;-58
2022/03/30 12:13:02;;;;;;;36.13;34.53;;;14.00;85.60;;;;;;4372774;32;20208;-57
2022/03/30 12:15:30;;;;;;;34.23;32.83;;;13.90;86.00;;;;;;4364016;32;20467;-56
2022/03/30 12:18:00;;;;;;;28.70;27.50;;;14.00;85.30;;;;;;4374248;32;20175;-57
2022/03/30 12:20:29;;;;;;;31.70;30.40;;;13.80;85.50;;;;;;4374412;32;20148;-57
2022/03/30 12:22:58;;;;;;;31.00;29.70;;;13.80;85.60;;;;;;4375286;32;20145;-58
2022/03/30 12:25:28;;;;;;;35.83;34.33;;;13.90;86.80;;;;;;4374286;32;20166;-57
2022/03/30 12:27:54;;;;;;;29.57;28.37;;;14.00;86.80;;;;;;4372503;32;20497;-58
2022/03/30 12:30:22;;;;;;;27.90;26.80;;;14.10;85.40;;;;;;4375032;32;20180;-58
2022/03/30 12:32:51;;;;;;;32.43;31.03;;;14.10;85.40;;;;;;4366495;32;20565;-58
2022/03/30 12:35:18;;;;;;;36.97;35.47;;;13.40;85.70;;;;;;4359442;33;20236;-58
2022/03/30 12:37:48;;;;;;;34.33;32.93;;;13.20;87.60;;;;;;4370891;32;20186;-58
2022/03/30 12:40:20;;;;;;;31.53;30.17;;;13.10;87.70;;;;;;4372495;32;20145;-58
2022/03/30 12:42:50;;;;;;;28.83;27.63;;;13.00;87.50;;;;;;4376990;32;20170;-55
2022/03/30 12:45:19;;;;;;;30.20;28.90;;;13.00;88.10;;;;;;4377693;32;20171;-58
2022/03/30 12:47:51;;;;;;;30.23;28.83;;;13.00;87.90;;;;;;4376639;32;20165;-56
2022/03/30 12:50:23;;;;;;;30.47;29.17;;;12.90;88.10;;;;;;4366225;32;20163;-57